Погода Лосвидана неделю

Витебская область, Белоруссия

23 - 29 мая
  • 23мая
    Сегодня
    +11°
    +25°
    Ясно и безоблачно
    ВремяПогодаТемператураВлажностьДавлениеВетер, м/сВероятность осадков
    00:00Ясно и безоблачно+15°C91 %750 мм2.7 м/с2 %
    03:00Ясно и безоблачно+13°C92 %750 мм3.5 м/с2 %
    06:00Ясно и безоблачно+13°C77 %751 мм3.9 м/с2 %
    09:00Ясно и безоблачно+17°C61 %752 мм3.9 м/с2 %
    12:00Ясно и безоблачно+22°C52 %753 мм4.4 м/с2 %
    15:00Ясно и безоблачно+24°C39 %753 мм4.8 м/с2 %
    18:00Ясно и безоблачно+24°C39 %752 мм4.6 м/с2 %
    21:00Ясно и безоблачно+19°C49 %753 мм4.0 м/с2 %
  • 24мая
    Пятница
    +9°
    +22°
    Ясно и безоблачно
    ВремяПогодаТемператураВлажностьДавлениеВетер, м/сВероятность осадков
    00:00Ясно и безоблачно+15°C56 %754 мм4.0 м/с2 %
    03:00Ясно и безоблачно+13°C60 %755 мм3.5 м/с2 %
    06:00Ясно и безоблачно+12°C65 %756 мм3.7 м/с2 %
    09:00Практически безоблачно+16°C52 %757 мм4.2 м/с2 %
    12:00Практически безоблачно+20°C39 %757 мм4.4 м/с2 %
    15:00Ясно и безоблачно+22°C37 %756 мм4.2 м/с2 %
    18:00Ясно и безоблачно+21°C38 %755 мм3.9 м/с2 %
    21:00Ясно и безоблачно+17°C51 %755 мм2.8 м/с2 %
  • 25мая
    Суббота
    +11°
    +25°
    Ясно и безоблачно
    ВремяПогодаТемператураВлажностьДавлениеВетер, м/сВероятность осадков
    00:00Ясно и безоблачно+13°C56 %756 мм3.1 м/с2 %
    03:00Ясно и безоблачно+11°C66 %755 мм2.5 м/с2 %
    06:00Ясно и безоблачно+11°C71 %755 мм2.6 м/с2 %
    09:00Ясно и безоблачно+16°C59 %755 мм2.3 м/с2 %
    12:00Ясно и безоблачно+22°C45 %755 мм2.3 м/с2 %
    15:00Ясно и безоблачно+24°C38 %754 мм2.6 м/с2 %
    18:00Ясно и безоблачно+24°C39 %753 мм2.2 м/с2 %
    21:00Ясно и безоблачно+18°C69 %753 мм2.5 м/с2 %
  • 26мая
    Воскресенье
    +14°
    +26°
    Ясно и безоблачно
    ВремяПогодаТемператураВлажностьДавлениеВетер, м/сВероятность осадков
    00:00Ясно и безоблачно+13°C78 %753 мм2.7 м/с2 %
    03:00Ясно и безоблачно+13°C84 %753 мм2.1 м/с2 %
    06:00Ясно и безоблачно+14°C75 %753 мм1.8 м/с2 %
    09:00Ясно и безоблачно+19°C51 %754 мм1.7 м/с2 %
    12:00Ясно и безоблачно+23°C40 %754 мм1.3 м/с2 %
    15:00Ясно и безоблачно+25°C36 %753 мм1.3 м/с2 %
    18:00Облачно с прояснениями+25°C36 %752 мм1.9 м/с3 %
    21:00Ясно и безоблачно+22°C43 %752 мм0.5 м/с2 %
  • 27мая
    Понедельник
    +14°
    +26°
    Пасмурно, сплошная облачность
    ВремяПогодаТемператураВлажностьДавлениеВетер, м/сВероятность осадков
    00:00Ясно и безоблачно+17°C69 %753 мм1.8 м/с2 %
    03:00Практически безоблачно+14°C79 %753 мм1.7 м/с2 %
    06:00Ясно и безоблачно+15°C82 %753 мм2.3 м/с2 %
    09:00Ясно и безоблачно+20°C69 %754 мм2.4 м/с2 %
    12:00Ясно и безоблачно+25°C55 %754 мм2.4 м/с24 %
    15:00Пасмурно, сплошная облачность+25°C50 %754 мм2.0 м/с28 %
    18:00Практически безоблачно+24°C57 %753 мм1.8 м/с20 %
    21:00Практически безоблачно+20°C72 %753 мм1.6 м/с6 %
Мы используем cookies
Соглашаюсь